createdAt,value
2022-09-05T00:02:29.851Z,16.54
2022-09-05T00:05:48.359Z,16.52
2022-09-05T00:09:00.145Z,16.47
2022-09-05T00:11:52.515Z,16.46
2022-09-05T00:15:15.141Z,16.52
2022-09-05T00:23:07.552Z,16.58
2022-09-05T00:24:27.482Z,16.58
2022-09-05T00:25:31.771Z,16.57
2022-09-05T00:28:31.297Z,16.52
2022-09-05T00:31:54.979Z,16.67
2022-09-05T00:35:26.013Z,16.77
2022-09-05T00:38:16.967Z,16.91
2022-09-05T00:41:12.123Z,17.04
2022-09-05T00:44:02.523Z,17.02
2022-09-05T00:46:58.492Z,16.90
2022-09-05T00:49:52.208Z,16.81
2022-09-05T00:52:52.936Z,16.73
2022-09-05T00:56:03.891Z,16.59
2022-09-05T00:59:50.874Z,16.55
2022-09-05T01:03:09.463Z,16.48
2022-09-05T01:06:12.386Z,16.31
2022-09-05T01:09:18.987Z,16.40
2022-09-05T01:12:20.226Z,16.68
2022-09-05T01:15:24.184Z,16.99
2022-09-05T01:18:32.852Z,17.16
2022-09-05T01:21:38.686Z,17.26
2022-09-05T01:24:42.009Z,17.29
2022-09-05T01:29:13.245Z,17.34
2022-09-05T01:31:10.977Z,17.29
2022-09-05T01:34:10.137Z,17.17
2022-09-05T01:37:33.131Z,17.02
2022-09-05T01:40:27.040Z,16.85
2022-09-05T01:43:26.804Z,16.65
2022-09-05T01:46:28.524Z,16.52
2022-09-05T01:49:25.912Z,16.38
2022-09-05T01:52:29.671Z,16.23
2022-09-05T01:55:31.841Z,16.15
2022-09-05T01:58:34.907Z,16.12
2022-09-05T02:01:33.489Z,16.06
2022-09-05T02:04:52.526Z,16.05
2022-09-05T02:08:09.512Z,15.95
2022-09-05T02:11:07.235Z,15.73
2022-09-05T02:14:05.938Z,16.05
2022-09-05T02:16:56.332Z,16.23
2022-09-05T02:19:49.267Z,16.43
2022-09-05T02:22:44.295Z,16.45
2022-09-05T02:26:01.216Z,16.42
2022-09-05T02:28:56.691Z,16.34
2022-09-05T02:31:49.583Z,16.29
2022-09-05T02:34:45.854Z,16.18
2022-09-05T02:42:23.956Z,16.08
2022-09-05T02:45:06.151Z,15.78
2022-09-05T02:45:07.952Z,16.04
2022-09-05T02:47:27.204Z,16.04
2022-09-05T02:55:58.778Z,16.07
2022-09-05T02:57:39.664Z,16.09
2022-09-05T02:57:40.793Z,16.31
2022-09-05T03:00:22.921Z,16.34
2022-09-05T03:03:27.661Z,16.34
2022-09-05T03:06:34.551Z,16.30
2022-09-05T03:09:41.446Z,16.15
2022-09-05T03:13:14.930Z,16.11
2022-09-05T03:16:24.110Z,16.11
2022-09-05T03:19:57.163Z,16.11
2022-09-05T03:23:33.460Z,16.01
2022-09-05T03:26:39.351Z,15.96
2022-09-05T03:30:02.841Z,15.84
2022-09-05T03:33:14.147Z,15.75
2022-09-05T03:36:42.510Z,15.70
2022-09-05T03:40:16.072Z,15.79
2022-09-05T03:43:31.914Z,15.76
2022-09-05T03:46:34.689Z,15.65
2022-09-05T03:52:58.379Z,15.61
2022-09-05T03:57:13.049Z,15.45
2022-09-05T03:57:17.191Z,15.50
2022-09-05T04:00:07.852Z,15.50
2022-09-05T04:08:06.107Z,15.42
2022-09-05T04:08:28.964Z,15.41
2022-09-05T04:09:51.096Z,15.35
2022-09-05T04:12:48.782Z,15.29
2022-09-05T04:15:42.245Z,15.21
2022-09-05T04:18:37.907Z,15.23
2022-09-05T04:21:29.090Z,15.27
2022-09-05T04:24:25.376Z,15.23
2022-09-05T04:27:30.381Z,15.22
2022-09-05T04:30:39.742Z,15.22
2022-09-05T04:33:36.274Z,15.22
2022-09-05T04:36:28.855Z,15.25
2022-09-05T04:39:28.585Z,15.29
2022-09-05T04:42:25.202Z,15.25
2022-09-05T04:45:17.849Z,15.34
2022-09-05T04:48:15.906Z,15.38
2022-09-05T04:51:13.136Z,15.45
2022-09-05T04:54:18.018Z,15.49
2022-09-05T04:57:19.115Z,15.48
2022-09-05T05:06:01.743Z,15.53
2022-09-05T05:06:17.340Z,15.53
2022-09-05T05:06:45.973Z,15.45
2022-09-05T05:09:41.256Z,15.64
2022-09-05T05:17:54.907Z,15.63
2022-09-05T05:17:58.897Z,15.64
2022-09-05T05:19:18.860Z,15.70
2022-09-05T05:22:15.626Z,15.81
2022-09-05T05:25:04.413Z,15.90
2022-09-05T05:28:15.538Z,15.82
2022-09-05T05:31:18.663Z,15.95
2022-09-05T05:34:24.793Z,15.96
2022-09-05T05:37:20.302Z,15.93
2022-09-05T05:40:14.243Z,15.95
2022-09-05T05:43:16.037Z,16.01
2022-09-05T05:46:04.390Z,16.04
2022-09-05T05:49:14.850Z,16.17
2022-09-05T05:52:26.313Z,16.26
2022-09-05T05:55:53.128Z,16.20
2022-09-05T05:58:56.945Z,16.28
2022-09-05T06:02:39.962Z,16.28
2022-09-05T06:05:50.596Z,16.17
2022-09-05T06:13:54.376Z,16.14
2022-09-05T06:14:57.129Z,16.31
2022-09-05T06:16:43.430Z,16.44
2022-09-05T06:20:28.786Z,16.69
2022-09-05T06:23:38.963Z,16.90
2022-09-05T06:27:08.877Z,17.23
2022-09-05T06:30:01.440Z,17.56
2022-09-05T06:33:10.268Z,17.81
2022-09-05T06:36:15.037Z,18.12
2022-09-05T06:39:13.122Z,18.39
2022-09-05T06:42:28.560Z,18.54
2022-09-05T06:46:06.776Z,18.67
2022-09-05T06:49:30.425Z,18.71
2022-09-05T06:52:33.157Z,18.50
2022-09-05T06:55:42.880Z,19.10
2022-09-05T06:59:09.748Z,19.24
2022-09-05T07:02:08.572Z,19.53
2022-09-05T07:05:36.877Z,19.53
2022-09-05T07:08:35.660Z,19.67
2022-09-05T07:11:30.762Z,19.61
2022-09-05T07:14:23.046Z,19.64
2022-09-05T07:17:15.334Z,19.82
2022-09-05T07:20:10.872Z,19.97
2022-09-05T07:23:52.762Z,20.08
2022-09-05T07:26:51.598Z,20.07
2022-09-05T07:29:35.350Z,20.27
2022-09-05T07:32:24.755Z,20.26
2022-09-05T07:35:20.162Z,20.37
2022-09-05T07:38:19.730Z,20.61
2022-09-05T07:41:18.344Z,20.83
2022-09-05T07:44:12.619Z,20.94
2022-09-05T07:47:06.997Z,21.01
2022-09-05T07:51:00.701Z,21.14
2022-09-05T07:57:04.125Z,21.18
2022-09-05T07:57:08.506Z,21.07
2022-09-05T07:59:26.071Z,21.30
2022-09-05T08:02:15.745Z,21.32
2022-09-05T08:05:05.286Z,21.84
2022-09-05T08:07:56.945Z,22.02
2022-09-05T08:11:23.450Z,22.23
2022-09-05T08:14:18.148Z,22.58
2022-09-05T08:17:13.436Z,22.76
2022-09-05T08:20:17.040Z,22.57
2022-09-05T08:23:11.680Z,22.90
2022-09-05T08:26:04.713Z,23.25
2022-09-05T08:29:00.162Z,23.34
2022-09-05T08:31:53.840Z,23.51
2022-09-05T08:34:45.940Z,23.31
2022-09-05T08:37:36.820Z,23.30
2022-09-05T08:40:30.064Z,23.47
2022-09-05T08:46:38.065Z,23.48
2022-09-05T08:46:50.530Z,23.69
2022-09-05T08:49:58.845Z,24.02
2022-09-05T08:52:58.204Z,24.13
2022-09-05T08:55:55.075Z,24.13
2022-09-05T08:59:28.474Z,24.19
2022-09-05T09:02:47.990Z,24.30
2022-09-05T09:06:13.599Z,24.43
2022-09-05T09:09:13.427Z,24.57
2022-09-05T09:12:10.291Z,24.73
2022-09-05T09:15:01.198Z,24.95
2022-09-05T09:17:50.588Z,25.22
2022-09-05T09:20:49.052Z,25.30
2022-09-05T09:23:47.662Z,25.59
2022-09-05T09:26:43.614Z,25.19
2022-09-05T09:29:36.482Z,25.15
2022-09-05T09:32:25.193Z,25.31
2022-09-05T09:35:21.876Z,25.27
2022-09-05T09:38:26.333Z,25.28
2022-09-05T09:41:31.467Z,25.09
2022-09-05T09:44:52.294Z,25.19
2022-09-05T09:48:23.383Z,25.48
2022-09-05T09:51:33.051Z,25.60
2022-09-05T09:54:54.591Z,25.82
2022-09-05T09:58:20.689Z,25.66
2022-09-05T10:01:36.343Z,25.35
2022-09-05T10:10:35.058Z,25.27
2022-09-05T10:10:53.207Z,25.19
2022-09-05T10:11:56.687Z,25.38
2022-09-05T10:15:30.896Z,25.56
2022-09-05T10:18:35.507Z,26.07
2022-09-05T10:21:46.517Z,26.19
2022-09-05T10:25:18.472Z,25.93
2022-09-05T10:28:13.906Z,25.86
2022-09-05T10:32:23.256Z,26.44
2022-09-05T10:35:14.791Z,27.05
2022-09-05T10:37:42.146Z,26.89
2022-09-05T10:40:46.388Z,26.50
2022-09-05T10:43:50.666Z,26.04
2022-09-05T10:46:52.016Z,25.63
2022-09-05T10:49:45.010Z,25.51
2022-09-05T10:52:37.567Z,26.17
2022-09-05T10:55:31.325Z,26.71
2022-09-05T11:00:34.112Z,27.24
2022-09-05T11:02:22.515Z,27.43
2022-09-05T11:05:04.879Z,27.90
2022-09-05T11:08:05.753Z,27.87
2022-09-05T11:11:04.044Z,28.09
2022-09-05T11:13:54.296Z,27.87
2022-09-05T11:16:50.563Z,28.15
2022-09-05T11:19:44.279Z,28.38
2022-09-05T11:22:39.797Z,28.24
2022-09-05T11:25:40.450Z,28.39
2022-09-05T11:28:38.990Z,28.54
2022-09-05T11:34:28.455Z,28.85
2022-09-05T11:39:47.843Z,29.04
2022-09-05T11:40:04.704Z,29.12
2022-09-05T11:42:32.059Z,28.98
2022-09-05T11:45:42.238Z,29.25
2022-09-05T11:48:52.963Z,29.47
2022-09-05T11:52:14.540Z,29.53
2022-09-05T11:55:38.380Z,29.43
2022-09-05T11:58:47.039Z,29.36
2022-09-05T12:01:44.973Z,29.47
2022-09-05T12:05:49.921Z,29.64
2022-09-05T12:08:08.219Z,29.83
2022-09-05T12:11:06.264Z,29.90
2022-09-05T12:14:21.088Z,29.98
2022-09-05T12:17:35.275Z,30.12
2022-09-05T12:20:37.435Z,30.22
2022-09-05T12:24:07.981Z,30.32
2022-09-05T12:27:40.234Z,30.39
2022-09-05T12:30:22.877Z,30.60
2022-09-05T12:36:01.854Z,30.58
2022-09-05T12:40:03.100Z,30.73
2022-09-05T12:41:35.914Z,30.56
2022-09-05T12:44:34.701Z,30.62
2022-09-05T12:46:24.717Z,30.57
2022-09-05T12:49:28.595Z,30.82
2022-09-05T12:52:38.482Z,30.89
2022-09-05T12:55:32.428Z,30.82
2022-09-05T13:03:04.850Z,30.67
2022-09-05T13:03:08.605Z,30.78
2022-09-05T13:05:01.739Z,30.96
2022-09-05T13:07:56.152Z,30.70
2022-09-05T13:14:47.307Z,30.73
2022-09-05T13:14:58.214Z,30.65
2022-09-05T13:17:10.451Z,30.51
2022-09-05T13:19:59.630Z,30.50
2022-09-05T13:22:50.964Z,30.53
2022-09-05T13:25:43.003Z,30.65
2022-09-05T13:28:40.300Z,30.80
2022-09-05T13:37:53.994Z,31.02
2022-09-05T13:38:13.700Z,31.09
2022-09-05T13:38:48.532Z,31.19
2022-09-05T13:41:28.355Z,31.05
2022-09-05T13:44:00.418Z,31.09
2022-09-05T13:46:58.298Z,31.06
2022-09-05T13:49:33.172Z,31.18
2022-09-05T13:52:28.953Z,31.19
2022-09-05T13:55:10.563Z,31.21
2022-09-05T13:57:43.895Z,31.12
2022-09-05T14:00:53.116Z,31.09
2022-09-05T14:03:50.437Z,31.20
2022-09-05T14:06:45.914Z,31.23
2022-09-05T14:09:36.971Z,31.22
2022-09-05T14:12:12.634Z,31.07
2022-09-05T14:17:54.723Z,31.13
2022-09-05T14:20:50.204Z,31.03
2022-09-05T14:23:20.967Z,30.96
2022-09-05T14:25:53.972Z,30.80
2022-09-05T14:28:27.874Z,30.71
2022-09-05T14:33:56.589Z,30.62
2022-09-05T14:37:41.130Z,30.74
2022-09-05T14:37:53.651Z,30.75
2022-09-05T14:41:02.820Z,30.71
2022-09-05T14:44:11.344Z,30.95
2022-09-05T14:47:06.252Z,30.98
2022-09-05T14:49:56.810Z,30.85
2022-09-05T14:52:26.998Z,30.71
2022-09-05T15:02:38.534Z,30.43
2022-09-05T15:02:47.777Z,30.42
2022-09-05T15:06:36.442Z,30.65
2022-09-05T15:12:11.051Z,30.48
2022-09-05T15:12:25.203Z,30.48
2022-09-05T15:15:00.381Z,30.35
2022-09-05T15:17:30.483Z,30.27
2022-09-05T15:20:05.469Z,30.36
2022-09-05T15:22:36.927Z,30.37
2022-09-05T15:25:17.174Z,30.30
2022-09-05T15:27:46.180Z,30.24
2022-09-05T15:30:19.801Z,30.20
2022-09-05T15:32:50.781Z,30.10
2022-09-05T15:35:34.953Z,30.08
2022-09-05T15:38:22.003Z,30.14
2022-09-05T15:41:20.435Z,30.17
2022-09-05T15:43:52.707Z,30.18
2022-09-05T15:46:26.230Z,30.19
2022-09-05T15:49:00.317Z,30.06
2022-09-05T15:51:42.137Z,30.04
2022-09-05T15:54:14.039Z,29.81
2022-09-05T15:56:57.314Z,29.71
2022-09-05T15:59:30.665Z,29.51
2022-09-05T16:02:00.883Z,29.46
2022-09-05T16:08:21.810Z,29.36
2022-09-05T16:10:36.593Z,29.18
2022-09-05T16:10:41.442Z,29.40
2022-09-05T16:13:13.260Z,29.13
2022-09-05T16:22:22.851Z,29.11
2022-09-05T16:23:26.205Z,29.01
2022-09-05T16:23:31.033Z,29.05
2022-09-05T16:24:26.128Z,29.04
2022-09-05T16:27:15.029Z,29.06
2022-09-05T16:29:44.506Z,29.05
2022-09-05T16:32:20.029Z,28.86
2022-09-05T16:34:54.904Z,28.82
2022-09-05T16:37:29.583Z,28.65
2022-09-05T16:40:04.043Z,28.58
2022-09-05T16:42:46.692Z,28.42
2022-09-05T16:45:30.158Z,28.34
2022-09-05T16:48:08.322Z,27.98
2022-09-05T16:50:48.048Z,27.93
2022-09-05T16:53:32.637Z,27.86
2022-09-05T16:56:04.520Z,27.71
2022-09-05T16:58:38.113Z,27.45
2022-09-05T17:01:23.726Z,27.13
2022-09-05T17:03:55.430Z,26.84
2022-09-05T17:06:26.619Z,26.42
2022-09-05T17:09:12.908Z,26.21
2022-09-05T17:11:44.474Z,25.92
2022-09-05T17:14:35.135Z,25.66
2022-09-05T17:17:19.556Z,25.45
2022-09-05T17:20:06.040Z,25.15
2022-09-05T17:26:08.252Z,24.91
2022-09-05T17:29:25.498Z,24.34
2022-09-05T17:29:26.020Z,24.62
2022-09-05T17:31:53.592Z,24.07
2022-09-05T17:34:58.693Z,23.83
2022-09-05T17:38:12.508Z,23.50
2022-09-05T17:40:59.184Z,23.29
2022-09-05T17:43:30.540Z,23.07
2022-09-05T17:46:13.792Z,22.85
2022-09-05T17:49:19.311Z,22.25
2022-09-05T17:52:28.036Z,22.31
2022-09-05T17:54:57.285Z,22.12
2022-09-05T17:57:41.101Z,21.97
2022-09-05T18:00:48.842Z,21.78
2022-09-05T18:04:16.311Z,21.61
2022-09-05T18:10:12.598Z,21.28
2022-09-05T18:13:13.158Z,21.09
2022-09-05T18:16:10.485Z,21.10
2022-09-05T18:19:32.743Z,21.04
2022-09-05T18:21:51.606Z,20.92
2022-09-05T18:24:33.386Z,20.75
2022-09-05T18:27:36.514Z,20.48
2022-09-05T18:30:11.828Z,20.46
2022-09-05T18:32:47.240Z,20.31
2022-09-05T18:35:37.330Z,20.22
2022-09-05T18:38:15.746Z,20.17
2022-09-05T18:40:52.957Z,20.05
2022-09-05T18:43:33.476Z,19.96
2022-09-05T18:46:08.107Z,19.89
2022-09-05T18:48:52.324Z,19.87
2022-09-05T18:51:38.443Z,19.80
2022-09-05T18:54:20.341Z,19.77
2022-09-05T18:57:26.171Z,19.76
2022-09-05T18:59:51.545Z,19.72
2022-09-05T19:02:39.590Z,19.68
2022-09-05T19:05:28.470Z,19.61
2022-09-05T19:07:59.760Z,19.54
2022-09-05T19:10:35.240Z,19.47
2022-09-05T19:13:13.492Z,19.40
2022-09-05T19:15:49.804Z,19.34
2022-09-05T19:18:26.447Z,19.27
2022-09-05T19:21:12.084Z,19.21
2022-09-05T19:23:46.579Z,19.19
2022-09-05T19:26:14.537Z,19.14
2022-09-05T19:36:44.757Z,19.09
2022-09-05T19:36:57.057Z,19.05
2022-09-05T19:37:11.974Z,19.05
2022-09-05T19:37:22.527Z,19.03
2022-09-05T19:43:22.777Z,19.01
2022-09-05T19:47:38.174Z,18.84
2022-09-05T19:47:57.878Z,19.03
2022-09-05T19:48:27.710Z,19.01
2022-09-05T19:50:58.049Z,19.05
2022-09-05T19:53:26.113Z,19.11
2022-09-05T19:55:54.691Z,19.12
2022-09-05T19:58:24.224Z,19.07
2022-09-05T20:01:03.286Z,19.13
2022-09-05T20:03:38.937Z,19.23
2022-09-05T20:06:28.742Z,19.21
2022-09-05T20:09:10.009Z,19.16
2022-09-05T20:11:46.218Z,19.14
2022-09-05T20:14:19.985Z,19.12
2022-09-05T20:16:49.854Z,19.11
2022-09-05T20:19:39.129Z,19.11
2022-09-05T20:22:48.179Z,19.16
2022-09-05T20:25:01.535Z,19.18
2022-09-05T20:27:31.230Z,19.18
2022-09-05T20:30:02.398Z,19.16
2022-09-05T20:32:39.933Z,19.20
2022-09-05T20:37:24.015Z,19.25
2022-09-05T20:43:14.578Z,19.42
2022-09-05T20:43:23.234Z,19.40
2022-09-05T20:43:53.644Z,19.39
2022-09-05T20:49:49.851Z,19.41
2022-09-05T20:54:23.202Z,19.40
2022-09-05T20:54:24.889Z,19.37
2022-09-05T20:55:38.618Z,19.35
2022-09-05T20:58:11.046Z,19.39
2022-09-05T21:01:15.505Z,19.34
2022-09-05T21:03:40.633Z,19.31
2022-09-05T21:06:22.151Z,19.34
2022-09-05T21:08:51.171Z,19.37
2022-09-05T21:11:30.570Z,19.32
2022-09-05T21:14:03.294Z,19.29
2022-09-05T21:16:33.990Z,19.29
2022-09-05T21:19:02.357Z,19.37
2022-09-05T21:21:31.976Z,19.33
2022-09-05T21:24:18.156Z,19.25
2022-09-05T21:26:49.550Z,19.55
2022-09-05T21:29:26.066Z,19.76
2022-09-05T21:32:02.211Z,19.45
2022-09-05T21:34:34.283Z,19.84
2022-09-05T21:37:06.828Z,19.73
2022-09-05T21:39:39.958Z,19.54
2022-09-05T21:44:59.157Z,19.47
2022-09-05T21:47:39.314Z,19.48
2022-09-05T21:47:53.296Z,19.45
2022-09-05T21:50:31.539Z,19.54
2022-09-05T21:54:06.563Z,19.82
2022-09-05T21:59:26.995Z,20.08
2022-09-05T21:59:32.588Z,19.96
2022-09-05T22:01:44.737Z,20.24
2022-09-05T22:04:17.441Z,20.41
2022-09-05T22:06:48.706Z,20.51
2022-09-05T22:09:17.485Z,20.52
2022-09-05T22:11:49.950Z,20.49
2022-09-05T22:14:19.926Z,20.44
2022-09-05T22:16:50.442Z,20.32
2022-09-05T22:19:36.824Z,20.25
2022-09-05T22:22:15.962Z,20.19
2022-09-05T22:24:48.074Z,20.04
2022-09-05T22:27:19.957Z,19.90
2022-09-05T22:29:50.591Z,19.56
2022-09-05T22:32:33.772Z,19.91
2022-09-05T22:35:15.989Z,20.05
2022-09-05T22:37:59.201Z,20.08
2022-09-05T22:40:27.852Z,20.10
2022-09-05T22:42:56.937Z,20.07
2022-09-05T22:45:26.314Z,20.01
2022-09-05T22:47:54.159Z,20.00
2022-09-05T22:50:22.104Z,19.95
2022-09-05T22:52:49.844Z,19.89
2022-09-05T22:55:17.547Z,19.81
2022-09-05T22:57:45.307Z,19.68
2022-09-05T23:00:13.661Z,19.53
2022-09-05T23:02:42.761Z,19.40
2022-09-05T23:05:10.862Z,19.32
2022-09-05T23:07:38.743Z,19.33
2022-09-05T23:10:07.014Z,19.33
2022-09-05T23:12:38.055Z,19.36
2022-09-05T23:15:06.712Z,19.51
2022-09-05T23:17:34.504Z,19.56
2022-09-05T23:20:05.190Z,19.64
2022-09-05T23:22:32.922Z,19.77
2022-09-05T23:25:00.653Z,19.81
2022-09-05T23:27:29.814Z,19.85
2022-09-05T23:29:57.553Z,19.98
2022-09-05T23:32:25.260Z,19.99
2022-09-05T23:34:53.088Z,20.01
2022-09-05T23:37:22.151Z,19.95
2022-09-05T23:39:50.320Z,19.87
2022-09-05T23:42:18.218Z,19.79
2022-09-05T23:44:46.007Z,19.71
2022-09-05T23:47:13.745Z,19.67
2022-09-05T23:49:41.562Z,19.63
2022-09-05T23:52:09.266Z,19.58
2022-09-05T23:54:38.344Z,19.48
2022-09-05T23:57:06.123Z,19.40
2022-09-05T23:59:33.929Z,19.38
